Time;durP1;ratioP1;P1;durP2;ratioP2;P2;SDS_P1;SDS_P2;PMS_P1;PMS_P2;Temp;Humidity;BMP_temperature;BMP_pressure;BME280_temperature;BME280_humidity;BME280_pressure;Samples;Min_cycle;Max_cycle;Signal;HPM_P1;HPM_P2
2022/03/29 00:02:15;;;;;;;15.27;13.77;;;1.50;99.90;;;;;;5085155;27;20676;-60
2022/03/29 00:04:57;;;;;;;15.18;13.60;;;1.50;99.90;;;;;;5104901;27;20542;-60
2022/03/29 00:07:37;;;;;;;16.08;13.45;;;1.50;99.90;;;;;;5105273;27;20554;-60
2022/03/29 00:10:16;;;;;;;14.70;13.25;;;1.50;99.90;;;;;;5083438;27;20622;-60
2022/03/29 00:12:56;;;;;;;11.68;10.43;;;1.50;99.90;;;;;;5146914;27;20551;-60
2022/03/29 00:15:36;;;;;;;9.77;8.80;;;1.50;99.90;;;;;;5146278;27;20554;-60
2022/03/29 00:18:16;;;;;;;9.10;8.35;;;1.50;99.90;;;;;;5125484;27;20554;-60
2022/03/29 00:20:56;;;;;;;9.68;8.57;;;1.50;99.90;;;;;;5104441;27;20567;-60
2022/03/29 00:23:36;;;;;;;9.35;8.43;;;1.50;99.90;;;;;;5104922;27;20542;-60
2022/03/29 00:26:16;;;;;;;8.45;7.75;;;1.50;99.90;;;;;;5084512;27;20543;-60
2022/03/29 00:28:55;;;;;;;8.30;7.50;;;1.60;99.90;;;;;;5084103;27;20547;-60
2022/03/29 00:31:35;;;;;;;8.10;7.32;;;1.70;99.90;;;;;;5084741;27;20569;-60
2022/03/29 00:34:15;;;;;;;8.57;7.75;;;1.70;99.90;;;;;;5085032;27;20565;-60
2022/03/29 00:36:55;;;;;;;8.18;7.47;;;1.60;99.90;;;;;;5085147;27;20600;-60
2022/03/29 00:39:35;;;;;;;11.45;8.75;;;1.70;99.90;;;;;;5145229;27;20534;-60
2022/03/29 00:42:14;;;;;;;10.07;8.80;;;1.70;99.90;;;;;;5083207;28;20562;-60
2022/03/29 00:44:57;;;;;;;9.02;8.13;;;1.60;99.90;;;;;;5146116;27;20560;-60
2022/03/29 00:47:36;;;;;;;9.82;8.40;;;1.60;99.90;;;;;;5084949;27;21097;-60
2022/03/29 00:50:16;;;;;;;12.40;8.50;;;1.60;99.90;;;;;;5124431;27;20655;-60
2022/03/29 00:52:56;;;;;;;10.70;7.70;;;1.50;99.90;;;;;;5159644;27;20548;-60
2022/03/29 00:55:36;;;;;;;8.10;7.40;;;1.50;99.90;;;;;;5105396;27;20659;-60
2022/03/29 00:58:16;;;;;;;8.77;7.82;;;1.60;99.90;;;;;;5104749;27;20568;-59
2022/03/29 01:00:58;;;;;;;7.82;7.07;;;1.60;99.90;;;;;;5144963;27;21070;-60
2022/03/29 01:03:38;;;;;;;8.07;7.28;;;1.70;99.90;;;;;;5100801;27;20562;-60
2022/03/29 01:06:18;;;;;;;8.48;7.78;;;1.70;99.90;;;;;;5145900;27;21132;-60
2022/03/29 01:08:58;;;;;;;8.27;7.57;;;1.80;99.90;;;;;;5145865;27;20538;-60
2022/03/29 01:11:38;;;;;;;9.88;7.88;;;1.80;99.90;;;;;;5125318;27;20532;-60
2022/03/29 01:14:17;;;;;;;8.18;7.38;;;1.80;99.90;;;;;;5084496;27;20574;-60
2022/03/29 01:19:56;;;;;;;8.20;7.38;;;1.90;99.90;;;;;;5083459;27;20539;-60
2022/03/29 01:22:39;;;;;;;8.82;7.97;;;1.90;99.90;;;;;;5085443;27;20598;-60
2022/03/29 01:25:23;;;;;;;8.80;7.97;;;1.90;99.90;;;;;;5084695;27;20577;-59
2022/03/29 01:28:05;;;;;;;8.38;7.45;;;1.90;99.90;;;;;;5126228;27;20603;-60
2022/03/29 01:30:45;;;;;;;9.02;8.13;;;1.90;99.90;;;;;;5124995;27;20536;-60
2022/03/29 01:33:25;;;;;;;9.18;8.30;;;1.70;99.90;;;;;;5084847;27;20593;-60
2022/03/29 01:36:05;;;;;;;9.38;8.48;;;1.60;99.90;;;;;;5085573;28;21071;-58
2022/03/29 01:38:44;;;;;;;8.27;7.47;;;1.50;99.90;;;;;;5105482;27;21123;-61
2022/03/29 01:41:27;;;;;;;8.98;8.10;;;1.30;99.90;;;;;;5144865;27;20546;-60
2022/03/29 01:44:06;;;;;;;8.00;7.30;;;1.20;99.90;;;;;;5147055;27;21046;-60
2022/03/29 01:46:45;;;;;;;8.63;7.72;;;1.10;99.90;;;;;;5105208;27;20573;-60
2022/03/29 01:49:26;;;;;;;10.27;8.32;;;1.10;99.90;;;;;;5083692;28;21281;-60
2022/03/29 01:52:06;;;;;;;8.02;7.28;;;1.00;99.90;;;;;;5125746;27;20552;-60
2022/03/29 01:54:45;;;;;;;8.93;8.13;;;1.10;99.90;;;;;;5146191;27;20573;-60
2022/03/29 01:57:28;;;;;;;8.95;8.18;;;1.20;99.90;;;;;;5105410;27;21029;-60
2022/03/29 02:03:09;;;;;;;7.82;7.22;;;1.10;99.90;;;;;;5069532;27;20553;-60
2022/03/29 02:05:50;;;;;;;8.02;7.22;;;1.10;99.90;;;;;;5125683;27;20549;-60
2022/03/29 02:08:30;;;;;;;7.90;7.13;;;1.20;99.90;;;;;;5146013;27;21139;-60
2022/03/29 02:11:09;;;;;;;8.40;7.78;;;1.20;99.90;;;;;;5145388;27;20534;-60
2022/03/29 02:13:49;;;;;;;8.07;7.18;;;1.10;99.90;;;;;;5105016;27;20969;-60
2022/03/29 02:16:29;;;;;;;8.68;7.88;;;1.00;99.90;;;;;;5125938;27;20544;-60
2022/03/29 02:19:09;;;;;;;8.75;7.30;;;0.90;99.90;;;;;;5104336;27;21066;-60
2022/03/29 02:21:49;;;;;;;8.18;7.57;;;0.90;99.90;;;;;;5149800;27;20560;-58
2022/03/29 02:24:29;;;;;;;8.35;7.55;;;0.80;99.90;;;;;;5145698;27;20560;-60
2022/03/29 02:27:09;;;;;;;8.07;7.38;;;0.80;99.90;;;;;;5125630;27;20962;-60
2022/03/29 02:29:48;;;;;;;8.70;7.90;;;0.70;99.90;;;;;;5083323;27;20581;-59
2022/03/29 02:32:28;;;;;;;8.60;7.45;;;0.70;99.90;;;;;;5105085;27;20678;-60
2022/03/29 02:35:09;;;;;;;8.23;7.43;;;0.80;99.90;;;;;;5084476;27;20556;-60
2022/03/29 02:37:48;;;;;;;7.07;6.57;;;0.80;99.90;;;;;;5145913;27;20572;-60
2022/03/29 02:40:28;;;;;;;7.45;6.85;;;0.70;99.90;;;;;;5144732;27;21148;-61
2022/03/29 02:43:08;;;;;;;7.05;6.53;;;0.60;99.90;;;;;;5103360;27;20562;-60
2022/03/29 02:45:49;;;;;;;7.82;7.18;;;0.60;99.90;;;;;;5125874;27;20583;-60
2022/03/29 02:48:30;;;;;;;8.20;7.60;;;0.50;99.90;;;;;;5125289;27;20539;-60
2022/03/29 02:51:10;;;;;;;7.75;6.70;;;0.40;99.90;;;;;;5104157;27;20529;-61
2022/03/29 02:53:50;;;;;;;8.35;7.65;;;0.40;99.90;;;;;;5125121;27;20544;-59
2022/03/29 02:56:30;;;;;;;8.38;7.45;;;0.40;99.90;;;;;;5084744;27;21039;-60
2022/03/29 02:59:10;;;;;;;8.25;7.55;;;0.40;99.90;;;;;;5124578;27;21340;-60
2022/03/29 03:01:50;;;;;;;8.07;7.38;;;0.30;99.90;;;;;;5084298;27;20584;-60
2022/03/29 03:04:29;;;;;;;8.60;7.90;;;0.30;99.90;;;;;;5125094;27;20586;-60
2022/03/29 03:07:09;;;;;;;8.68;7.90;;;0.30;99.90;;;;;;5084794;27;20952;-60
2022/03/29 03:09:49;;;;;;;8.77;7.97;;;0.30;99.90;;;;;;5145011;27;21081;-60
2022/03/29 03:12:29;;;;;;;8.85;7.97;;;0.30;99.90;;;;;;5105127;27;21094;-60
2022/03/29 03:15:10;;;;;;;7.22;6.63;;;0.30;99.90;;;;;;5084393;27;20546;-59
2022/03/29 03:17:51;;;;;;;8.23;7.38;;;0.20;99.90;;;;;;5084622;27;21039;-60
2022/03/29 03:20:31;;;;;;;8.05;7.20;;;0.30;99.90;;;;;;5083424;28;20600;-60
2022/03/29 03:23:11;;;;;;;7.50;6.80;;;0.30;99.90;;;;;;5125672;27;20555;-60
2022/03/29 03:25:51;;;;;;;8.02;7.32;;;0.30;99.90;;;;;;5145305;27;20558;-60
2022/03/29 03:28:31;;;;;;;8.15;7.45;;;0.40;99.90;;;;;;5084158;28;20672;-60
2022/03/29 03:31:11;;;;;;;7.95;7.15;;;0.50;99.90;;;;;;5144640;27;21147;-60
2022/03/29 03:33:50;;;;;;;8.30;7.53;;;0.50;99.90;;;;;;5125398;27;20544;-60
2022/03/29 03:36:30;;;;;;;9.32;7.35;;;0.60;99.90;;;;;;5084354;27;20565;-60
2022/03/29 03:39:10;;;;;;;8.60;7.70;;;0.70;99.90;;;;;;5083306;27;20595;-60
2022/03/29 03:41:50;;;;;;;8.70;7.38;;;0.70;99.90;;;;;;5083431;28;21091;-60
2022/03/29 03:44:30;;;;;;;8.13;7.32;;;0.80;99.90;;;;;;5146364;27;20599;-60
2022/03/29 03:47:10;;;;;;;8.57;7.78;;;0.80;99.90;;;;;;5084674;27;20547;-60
2022/03/29 03:49:50;;;;;;;7.70;6.90;;;0.80;99.90;;;;;;5145401;27;20534;-60
2022/03/29 03:52:29;;;;;;;7.90;7.30;;;0.90;99.90;;;;;;5125509;27;20416;-60
2022/03/29 03:55:10;;;;;;;7.40;6.70;;;0.90;99.90;;;;;;5126049;27;21366;-60
2022/03/29 03:57:49;;;;;;;7.90;7.05;;;0.90;99.90;;;;;;5105223;27;20554;-60
2022/03/29 04:00:29;;;;;;;7.93;7.32;;;1.00;99.90;;;;;;5103930;27;20670;-60
2022/03/29 04:03:09;;;;;;;8.60;6.97;;;1.00;99.90;;;;;;5128811;22;20585;-61
2022/03/29 04:05:48;;;;;;;8.07;7.38;;;1.00;99.90;;;;;;5104705;27;20538;-61
2022/03/29 04:08:28;;;;;;;9.38;7.53;;;1.00;99.90;;;;;;5083462;27;20573;-62
2022/03/29 04:11:08;;;;;;;8.43;7.78;;;0.90;99.90;;;;;;5083131;27;20569;-62
2022/03/29 04:13:48;;;;;;;8.02;6.80;;;0.90;99.90;;;;;;5125440;27;20552;-63
2022/03/29 04:16:28;;;;;;;8.20;7.50;;;0.90;99.90;;;;;;5084896;27;20543;-62
2022/03/29 04:19:08;;;;;;;7.32;6.80;;;0.90;99.90;;;;;;5145734;27;20531;-62
2022/03/29 04:21:48;;;;;;;7.82;7.07;;;0.90;99.90;;;;;;5103515;27;20661;-62
2022/03/29 04:24:28;;;;;;;7.28;6.57;;;1.00;99.90;;;;;;5084488;27;20531;-61
2022/03/29 04:27:07;;;;;;;7.57;6.82;;;1.00;99.90;;;;;;5105230;27;20618;-62
2022/03/29 04:29:47;;;;;;;7.65;6.95;;;1.00;99.90;;;;;;5103831;27;20552;-62
2022/03/29 04:32:27;;;;;;;8.40;7.78;;;0.90;99.90;;;;;;5084425;27;20597;-62
2022/03/29 04:35:07;;;;;;;8.23;7.53;;;0.80;99.90;;;;;;5125300;27;20536;-60
2022/03/29 04:37:46;;;;;;;8.00;7.30;;;0.70;99.90;;;;;;5084814;27;20586;-61
2022/03/29 04:40:26;;;;;;;8.38;7.68;;;0.60;99.90;;;;;;5083158;27;20573;-61
2022/03/29 04:43:06;;;;;;;8.05;7.18;;;0.60;99.90;;;;;;5103525;27;21090;-62
2022/03/29 04:45:46;;;;;;;11.20;10.07;;;0.50;99.90;;;;;;5104752;27;20478;-61
2022/03/29 04:48:26;;;;;;;8.55;7.80;;;0.40;99.90;;;;;;5105435;27;20669;-61
2022/03/29 04:51:06;;;;;;;8.15;7.47;;;0.40;99.90;;;;;;5083935;27;20569;-61
2022/03/29 04:53:45;;;;;;;8.35;7.75;;;0.40;99.90;;;;;;5081602;27;21371;-61
2022/03/29 04:56:25;;;;;;;9.05;6.97;;;0.40;99.90;;;;;;5111719;27;20542;-63
2022/03/29 04:59:05;;;;;;;10.23;8.45;;;0.40;99.90;;;;;;5084232;28;20871;-61
2022/03/29 05:01:45;;;;;;;8.30;7.60;;;0.30;99.90;;;;;;5125146;27;20551;-61
2022/03/29 05:04:25;;;;;;;8.35;7.63;;;0.20;99.90;;;;;;5084528;27;20568;-61
2022/03/29 05:07:05;;;;;;;8.05;7.45;;;0.10;99.90;;;;;;5084666;27;20573;-61
2022/03/29 05:09:44;;;;;;;9.27;7.30;;;0.10;99.90;;;;;;5083481;27;21067;-61
2022/03/29 05:12:26;;;;;;;9.05;8.35;;;0.10;99.90;;;;;;5070922;27;20738;-62
2022/03/29 05:15:07;;;;;;;10.65;7.80;;;0.10;99.90;;;;;;5068034;28;21073;-61
2022/03/29 05:17:48;;;;;;;8.95;8.05;;;0.10;99.90;;;;;;5071978;27;20638;-63
2022/03/29 05:20:27;;;;;;;8.43;7.55;;;0.10;99.90;;;;;;5144326;27;20556;-61
2022/03/29 05:23:08;;;;;;;7.82;7.22;;;0.20;99.90;;;;;;5069958;27;20563;-62
2022/03/29 05:25:46;;;;;;;7.70;7.00;;;0.20;99.90;;;;;;5124010;27;21195;-61
2022/03/29 05:28:26;;;;;;;7.90;7.20;;;0.30;99.90;;;;;;5105017;27;20545;-62
2022/03/29 05:31:07;;;;;;;8.88;7.95;;;0.40;99.90;;;;;;5104435;27;20599;-61
2022/03/29 05:33:46;;;;;;;10.23;7.38;;;0.50;99.90;;;;;;5084297;27;20568;-62
2022/03/29 05:36:26;;;;;;;8.75;7.95;;;0.60;99.90;;;;;;5145626;27;20882;-60
2022/03/29 05:39:06;;;;;;;7.82;7.22;;;0.60;99.90;;;;;;5083959;27;21095;-62
2022/03/29 05:41:45;;;;;;;8.35;7.53;;;0.70;99.90;;;;;;5082634;27;20578;-61
2022/03/29 05:44:25;;;;;;;7.40;6.70;;;0.90;99.90;;;;;;5125179;27;20548;-60
2022/03/29 05:50:02;;;;;;;8.45;7.25;;;1.10;99.90;;;;;;5083469;27;20562;-62
2022/03/29 05:52:42;;;;;;;8.27;7.60;;;1.30;99.90;;;;;;5084394;27;21163;-61
2022/03/29 05:55:22;;;;;;;9.90;9.10;;;1.50;99.90;;;;;;5095582;22;20602;-59
2022/03/29 05:58:02;;;;;;;9.40;8.57;;;1.60;99.90;;;;;;5084963;28;20546;-59
2022/03/29 06:00:43;;;;;;;12.25;11.00;;;1.70;99.90;;;;;;5145097;27;20546;-59
2022/03/29 06:03:23;;;;;;;10.02;9.13;;;1.90;99.90;;;;;;5104680;27;20545;-61
2022/03/29 06:06:03;;;;;;;8.77;7.80;;;2.10;99.90;;;;;;5084816;28;20691;-61
2022/03/29 06:08:43;;;;;;;8.75;7.82;;;2.20;99.90;;;;;;5144028;27;20542;-60
2022/03/29 06:11:23;;;;;;;9.77;8.82;;;2.40;99.90;;;;;;5145565;27;20550;-60
2022/03/29 06:14:02;;;;;;;9.40;8.50;;;2.60;99.90;;;;;;5145700;27;20664;-60
2022/03/29 06:16:58;;;;;;;8.82;8.13;;;2.80;99.90;;;;;;5084774;27;20589;-60
2022/03/29 06:19:37;;;;;;;9.05;8.38;;;3.10;99.90;;;;;;5103727;27;21038;-59
2022/03/29 06:22:17;;;;;;;8.75;8.05;;;3.30;99.90;;;;;;5084757;28;20550;-60
2022/03/29 06:24:58;;;;;;;9.52;8.73;;;3.50;99.90;;;;;;5125038;27;20525;-60
2022/03/29 06:27:41;;;;;;;9.35;8.45;;;3.70;99.90;;;;;;5101308;27;1282812;-60
2022/03/29 06:30:24;;;;;;;9.25;8.38;;;4.00;99.90;;;;;;5054105;27;2014187;-60
2022/03/29 06:33:03;;;;;;;9.40;8.60;;;4.20;99.90;;;;;;5125391;27;20566;-60
2022/03/29 06:35:42;;;;;;;11.13;9.20;;;4.30;99.90;;;;;;5155256;27;20667;-60
2022/03/29 06:38:22;;;;;;;9.45;8.75;;;4.50;99.90;;;;;;5105491;27;20910;-60
2022/03/29 06:41:02;;;;;;;9.85;8.98;;;4.70;99.90;;;;;;5144798;27;21197;-60
2022/03/29 06:43:42;;;;;;;9.02;8.32;;;4.90;99.90;;;;;;5125628;27;20552;-59
2022/03/29 06:46:22;;;;;;;10.07;8.98;;;5.10;99.90;;;;;;5146790;27;20554;-59
2022/03/29 06:49:03;;;;;;;10.25;9.35;;;5.30;99.90;;;;;;5084979;28;20556;-57
2022/03/29 06:51:44;;;;;;;8.65;7.75;;;5.50;99.90;;;;;;5085112;27;21076;-57
2022/03/29 06:54:24;;;;;;;9.38;8.48;;;5.60;99.90;;;;;;5084679;27;20553;-58
2022/03/29 06:57:05;;;;;;;11.85;10.15;;;5.80;99.90;;;;;;5126094;27;21028;-58
2022/03/29 06:59:44;;;;;;;10.68;9.57;;;6.10;99.90;;;;;;5104028;27;20534;-58
2022/03/29 07:02:25;;;;;;;10.98;9.40;;;6.20;99.90;;;;;;5105291;27;20538;-57
2022/03/29 07:05:04;;;;;;;11.00;8.95;;;6.50;99.90;;;;;;5149849;27;20667;-57
2022/03/29 07:07:44;;;;;;;12.00;10.80;;;6.80;99.90;;;;;;5081910;27;20396;-57
2022/03/29 07:13:22;;;;;;;17.90;9.05;;;7.20;99.90;;;;;;5146488;27;20531;-58
2022/03/29 07:16:01;;;;;;;22.58;9.85;;;7.40;99.90;;;;;;5146587;27;20551;-57
2022/03/29 07:18:41;;;;;;;15.68;9.88;;;7.60;99.90;;;;;;5084979;28;20671;-57
2022/03/29 07:21:22;;;;;;;17.92;9.98;;;7.70;99.90;;;;;;5104745;27;20674;-58
2022/03/29 07:24:03;;;;;;;16.00;9.82;;;8.00;99.90;;;;;;5146223;27;20554;-58
2022/03/29 07:26:42;;;;;;;11.45;8.57;;;8.20;99.90;;;;;;5105263;27;20678;-58
2022/03/29 07:29:21;;;;;;;11.15;9.73;;;8.50;99.90;;;;;;5088498;22;20614;-58
2022/03/29 07:32:01;;;;;;;9.93;9.13;;;8.70;99.90;;;;;;5105044;27;20567;-59
2022/03/29 07:34:41;;;;;;;10.13;8.13;;;8.80;99.90;;;;;;5145819;27;20546;-59
2022/03/29 07:37:21;;;;;;;17.05;9.57;;;9.00;99.90;;;;;;5125649;27;20536;-61
2022/03/29 07:40:01;;;;;;;14.95;9.55;;;9.10;99.90;;;;;;5083408;28;20568;-59
2022/03/29 07:42:41;;;;;;;11.73;10.27;;;9.20;99.90;;;;;;5105086;27;20552;-60
2022/03/29 07:45:21;;;;;;;12.43;10.10;;;9.40;99.90;;;;;;5105458;27;20694;-58
2022/03/29 07:48:02;;;;;;;10.52;9.20;;;9.70;99.90;;;;;;5125201;27;20962;-59
2022/03/29 07:50:42;;;;;;;9.80;8.70;;;10.00;99.90;;;;;;5083840;28;20591;-58
2022/03/29 07:53:25;;;;;;;9.57;8.85;;;10.20;99.90;;;;;;5084686;27;20601;-59
2022/03/29 07:56:05;;;;;;;10.90;9.82;;;10.50;99.90;;;;;;5146810;27;21087;-59
2022/03/29 07:58:44;;;;;;;10.60;9.70;;;10.70;99.90;;;;;;5125811;27;20552;-59
2022/03/29 08:01:24;;;;;;;9.90;9.10;;;10.90;99.90;;;;;;5104529;27;20662;-59
2022/03/29 08:04:04;;;;;;;12.40;9.60;;;11.10;99.90;;;;;;5084709;27;20547;-59
2022/03/29 08:06:44;;;;;;;12.85;9.68;;;11.20;99.90;;;;;;5085436;27;20539;-59
2022/03/29 08:09:24;;;;;;;14.95;10.45;;;11.20;99.90;;;;;;5082192;27;20580;-59
2022/03/29 08:12:04;;;;;;;10.82;9.88;;;11.20;99.90;;;;;;5085210;27;20572;-58
2022/03/29 08:14:43;;;;;;;11.73;10.50;;;11.40;99.90;;;;;;5105721;27;20561;-59
2022/03/29 08:17:23;;;;;;;12.57;10.45;;;11.90;99.90;;;;;;5085088;28;20660;-59
2022/03/29 08:20:05;;;;;;;11.68;10.63;;;12.20;99.90;;;;;;5082993;28;20691;-59
2022/03/29 08:22:46;;;;;;;12.10;11.07;;;12.50;99.90;;;;;;5104882;27;20546;-59
2022/03/29 08:25:26;;;;;;;13.13;10.95;;;12.60;99.90;;;;;;5125394;27;20548;-61
2022/03/29 08:28:07;;;;;;;12.95;10.90;;;12.70;99.90;;;;;;5085242;27;20528;-58
2022/03/29 08:30:47;;;;;;;15.38;11.23;;;13.00;98.80;;;;;;5103904;27;20661;-60
2022/03/29 08:33:27;;;;;;;10.50;9.70;;;13.40;99.00;;;;;;5084923;28;20652;-59
2022/03/29 08:36:07;;;;;;;11.32;9.80;;;13.40;93.40;;;;;;5084825;28;20679;-58
2022/03/29 08:38:46;;;;;;;10.88;9.40;;;13.70;92.50;;;;;;5126025;27;20548;-60
2022/03/29 08:41:28;;;;;;;10.32;9.43;;;14.00;86.90;;;;;;5104866;27;20562;-59
2022/03/29 08:44:08;;;;;;;10.88;10.02;;;14.30;82.30;;;;;;5146295;27;20927;-60
2022/03/29 08:46:49;;;;;;;9.95;9.15;;;14.40;80.10;;;;;;5105420;27;20563;-59
2022/03/29 08:49:30;;;;;;;10.60;9.63;;;14.60;73.60;;;;;;5083579;28;20555;-59
2022/03/29 08:52:11;;;;;;;11.30;10.30;;;14.80;68.20;;;;;;5084932;27;20565;-59
2022/03/29 08:54:51;;;;;;;10.63;9.43;;;14.90;66.20;;;;;;5146047;27;20550;-59
2022/03/29 08:57:30;;;;;;;11.68;10.52;;;14.90;65.00;;;;;;5105246;27;20534;-59
2022/03/29 09:00:11;;;;;;;11.90;9.98;;;15.10;62.10;;;;;;5081886;28;20703;-61
2022/03/29 09:02:50;;;;;;;10.18;9.27;;;15.20;57.80;;;;;;5084984;28;20711;-59
2022/03/29 09:05:30;;;;;;;11.68;10.15;;;15.50;56.20;;;;;;5146355;27;20665;-59
2022/03/29 09:08:11;;;;;;;13.80;10.75;;;15.80;54.30;;;;;;5083204;27;21141;-58
2022/03/29 09:10:53;;;;;;;11.35;10.20;;;16.00;52.80;;;;;;5080126;28;20562;-60
2022/03/29 09:13:32;;;;;;;12.65;11.40;;;16.20;51.60;;;;;;5084288;28;20565;-59
2022/03/29 09:16:29;;;;;;;12.40;11.20;;;16.30;51.70;;;;;;5104438;27;20545;-60
2022/03/29 09:19:10;;;;;;;13.23;11.27;;;16.30;50.70;;;;;;5084003;28;21040;-60
2022/03/29 09:21:49;;;;;;;11.05;9.93;;;16.30;50.80;;;;;;5146312;27;21085;-57
2022/03/29 09:24:33;;;;;;;11.57;10.48;;;16.30;50.70;;;;;;5082182;22;20615;-62
2022/03/29 09:27:12;;;;;;;11.45;10.43;;;16.20;50.40;;;;;;5105322;27;20550;-61
2022/03/29 09:30:07;;;;;;;11.52;10.43;;;16.60;51.10;;;;;;5124643;27;20687;-61
2022/03/29 09:32:54;;;;;;;11.10;10.20;;;16.80;50.50;;;;;;5149207;27;20657;-62
2022/03/29 09:35:37;;;;;;;10.88;9.90;;;16.90;50.90;;;;;;5105272;27;20669;-63
2022/03/29 09:38:26;;;;;;;10.73;9.75;;;16.80;49.00;;;;;;5105491;27;21202;-62
2022/03/29 09:41:19;;;;;;;11.43;10.43;;;16.70;49.80;;;;;;5103922;27;20952;-62
2022/03/29 09:44:05;;;;;;;13.23;10.73;;;16.60;50.70;;;;;;5126200;27;21215;-63
2022/03/29 09:47:00;;;;;;;12.55;11.30;;;16.70;50.50;;;;;;5146335;27;20657;-61
2022/03/29 09:49:54;;;;;;;12.85;11.30;;;16.50;49.40;;;;;;5083613;27;20683;-61
2022/03/29 09:52:37;;;;;;;11.40;10.50;;;16.10;49.00;;;;;;5084626;28;20554;-61
2022/03/29 09:55:20;;;;;;;12.50;11.13;;;15.90;49.80;;;;;;5104904;27;20545;-61
2022/03/29 09:58:00;;;;;;;13.10;11.80;;;15.70;52.00;;;;;;5146178;27;20554;-61
2022/03/29 10:00:42;;;;;;;12.63;10.65;;;15.70;50.80;;;;;;5082685;27;20565;-61
2022/03/29 10:03:23;;;;;;;12.70;11.38;;;15.60;50.70;;;;;;5084227;27;20593;-61
2022/03/29 10:06:05;;;;;;;12.23;11.02;;;15.80;49.80;;;;;;5124831;27;21200;-60
2022/03/29 10:11:45;;;;;;;12.32;11.07;;;16.00;48.60;;;;;;5145295;27;20669;-61
2022/03/29 10:14:26;;;;;;;12.95;11.10;;;15.70;49.70;;;;;;5083912;28;21037;-62
2022/03/29 10:17:07;;;;;;;16.70;12.38;;;15.70;49.80;;;;;;5145445;27;20556;-60
2022/03/29 10:19:47;;;;;;;13.23;11.88;;;15.70;49.70;;;;;;5123977;27;20556;-60
2022/03/29 10:22:27;;;;;;;11.98;10.73;;;15.60;50.20;;;;;;5104675;27;20549;-61
2022/03/29 10:25:08;;;;;;;12.85;11.38;;;15.80;51.10;;;;;;5108355;27;20721;-62
2022/03/29 10:27:49;;;;;;;13.77;12.48;;;16.10;50.70;;;;;;5126612;27;20568;-61
2022/03/29 10:30:37;;;;;;;12.73;11.23;;;16.10;51.20;;;;;;5143934;27;20973;-61
2022/03/29 10:33:24;;;;;;;12.98;10.70;;;15.90;51.90;;;;;;5097667;27;21148;-61
2022/03/29 10:36:07;;;;;;;12.57;11.23;;;15.80;51.60;;;;;;5125091;27;20536;-62
2022/03/29 10:38:58;;;;;;;12.00;10.70;;;15.80;52.60;;;;;;5082786;27;20688;-62
2022/03/29 10:41:53;;;;;;;13.85;11.82;;;15.80;52.00;;;;;;5081160;27;20555;-61
2022/03/29 10:45:02;;;;;;;17.30;12.05;;;15.90;51.40;;;;;;5088948;27;20551;-62
2022/03/29 10:47:44;;;;;;;13.35;11.60;;;15.80;51.10;;;;;;5104472;27;21019;-62
2022/03/29 10:51:00;;;;;;;13.60;12.02;;;15.70;52.10;;;;;;5103187;27;20546;-61
2022/03/29 10:53:42;;;;;;;11.50;10.30;;;15.90;52.30;;;;;;5154335;27;21083;-61
2022/03/29 10:56:24;;;;;;;12.32;11.23;;;16.10;52.60;;;;;;5145264;27;21219;-60
2022/03/29 10:59:14;;;;;;;12.82;11.48;;;16.40;51.60;;;;;;5073131;27;20587;-60
2022/03/29 11:02:15;;;;;;;12.73;11.57;;;16.80;51.40;;;;;;5145684;27;20669;-61
2022/03/29 11:05:06;;;;;;;13.13;11.80;;;17.00;51.90;;;;;;5083666;27;20577;-61
2022/03/29 11:08:12;;;;;;;12.90;11.60;;;17.40;49.20;;;;;;5084461;27;20555;-62
2022/03/29 11:10:56;;;;;;;17.25;15.57;;;17.80;47.70;;;;;;5083438;27;1307803;-62
2022/03/29 11:13:41;;;;;;;12.23;10.70;;;18.50;47.10;;;;;;5103770;27;21044;-60
2022/03/29 11:16:31;;;;;;;13.43;12.00;;;19.20;45.70;;;;;;5084272;28;21266;-60
2022/03/29 11:19:39;;;;;;;12.68;11.15;;;19.80;44.00;;;;;;5106377;27;20907;-61
2022/03/29 11:22:25;;;;;;;13.55;11.75;;;19.40;44.70;;;;;;5145377;27;20669;-61
2022/03/29 11:25:09;;;;;;;13.05;11.73;;;19.60;44.00;;;;;;5144615;27;21055;-60
2022/03/29 11:27:48;;;;;;;21.10;12.27;;;19.60;42.80;;;;;;5145428;27;20667;-60
2022/03/29 11:30:28;;;;;;;13.43;10.95;;;19.70;42.90;;;;;;5082849;27;20546;-60
2022/03/29 11:33:09;;;;;;;11.88;10.88;;;19.60;44.20;;;;;;5083939;27;20585;-61
2022/03/29 11:35:54;;;;;;;11.88;10.88;;;19.80;42.70;;;;;;5146328;27;20576;-60
2022/03/29 11:38:36;;;;;;;12.82;11.30;;;20.10;41.30;;;;;;5086600;27;20577;-60
2022/03/29 11:41:27;;;;;;;13.52;12.23;;;20.20;40.90;;;;;;5083137;28;20563;-60
2022/03/29 11:44:08;;;;;;;14.55;12.63;;;20.30;40.60;;;;;;5104835;27;20968;-60
2022/03/29 11:46:50;;;;;;;15.05;12.02;;;20.10;40.40;;;;;;5146436;27;20653;-61
2022/03/29 11:49:38;;;;;;;12.85;11.32;;;19.90;41.20;;;;;;5124577;27;20543;-60
2022/03/29 11:52:19;;;;;;;12.82;11.57;;;19.70;41.60;;;;;;5096278;27;20559;-61
2022/03/29 11:54:58;;;;;;;16.75;14.93;;;19.60;43.50;;;;;;5146234;27;20534;-60
2022/03/29 11:57:38;;;;;;;16.05;14.55;;;19.40;43.80;;;;;;5104882;27;20538;-60
2022/03/29 12:00:25;;;;;;;18.15;14.73;;;19.50;44.40;;;;;;5144819;27;21021;-59
2022/03/29 12:03:04;;;;;;;15.18;13.63;;;19.00;44.50;;;;;;5104136;27;20677;-61
2022/03/29 12:05:44;;;;;;;16.83;15.13;;;18.70;46.80;;;;;;5145614;27;20539;-60
2022/03/29 12:08:25;;;;;;;18.95;14.43;;;18.60;46.40;;;;;;5083193;27;21051;-60
2022/03/29 12:11:09;;;;;;;19.60;15.07;;;18.50;47.20;;;;;;5144600;27;20975;-60
2022/03/29 12:13:59;;;;;;;17.90;16.17;;;18.70;46.10;;;;;;5157133;27;20549;-60
2022/03/29 12:16:39;;;;;;;17.38;15.63;;;18.70;45.70;;;;;;5146579;27;20564;-60
2022/03/29 12:19:22;;;;;;;16.75;14.90;;;18.80;45.50;;;;;;5104202;27;20545;-61
2022/03/29 12:22:04;;;;;;;16.40;14.85;;;18.90;45.50;;;;;;5125273;27;20536;-60
2022/03/29 12:24:44;;;;;;;20.35;16.58;;;19.00;45.90;;;;;;5125658;27;20613;-60
2022/03/29 12:27:24;;;;;;;16.60;15.00;;;19.00;46.20;;;;;;5146009;27;20645;-60
2022/03/29 12:30:04;;;;;;;20.27;17.42;;;19.10;46.10;;;;;;5083688;27;20551;-60
2022/03/29 12:32:46;;;;;;;29.40;17.38;;;19.30;45.50;;;;;;5147324;27;20546;-60
2022/03/29 12:35:30;;;;;;;17.13;15.50;;;19.10;46.10;;;;;;5145504;27;20562;-60
2022/03/29 12:38:12;;;;;;;20.45;15.95;;;19.20;47.00;;;;;;5104857;27;20553;-60
2022/03/29 12:41:00;;;;;;;18.00;15.60;;;19.60;45.70;;;;;;5144455;27;20673;-60
2022/03/29 12:43:40;;;;;;;18.58;16.67;;;19.50;44.90;;;;;;5124593;27;20552;-60
2022/03/29 12:46:22;;;;;;;18.85;16.38;;;19.60;44.70;;;;;;5104930;27;20554;-60
2022/03/29 12:49:01;;;;;;;20.42;16.30;;;19.60;45.20;;;;;;5145624;27;20542;-59
2022/03/29 12:51:41;;;;;;;19.15;16.98;;;19.60;45.40;;;;;;5102597;27;20549;-60
2022/03/29 12:54:21;;;;;;;19.05;17.25;;;19.60;44.80;;;;;;5082293;27;20616;-60
2022/03/29 12:57:01;;;;;;;20.05;17.90;;;19.40;44.80;;;;;;5146729;27;20538;-59
2022/03/29 12:59:43;;;;;;;19.65;16.80;;;19.20;45.70;;;;;;5123885;27;20567;-60
2022/03/29 13:02:23;;;;;;;21.23;17.70;;;19.20;47.30;;;;;;5070491;27;20611;-60
2022/03/29 13:05:05;;;;;;;24.55;18.67;;;18.90;45.80;;;;;;5143389;27;20570;-60
2022/03/29 13:07:48;;;;;;;19.55;16.73;;;18.70;46.90;;;;;;5123582;27;20547;-59
2022/03/29 13:10:33;;;;;;;22.17;17.83;;;18.60;47.90;;;;;;5144024;27;20689;-59
2022/03/29 13:13:17;;;;;;;21.10;18.45;;;18.60;48.40;;;;;;5124644;27;21088;-60
2022/03/29 13:16:00;;;;;;;21.05;18.48;;;18.70;47.60;;;;;;5091697;27;20539;-60
2022/03/29 13:18:40;;;;;;;24.40;19.48;;;18.80;47.80;;;;;;5125030;27;20880;-61
2022/03/29 13:21:22;;;;;;;20.45;18.38;;;18.90;46.70;;;;;;5123686;27;20672;-61
2022/03/29 13:24:12;;;;;;;21.60;18.50;;;18.80;47.40;;;;;;5071843;27;20591;-61
2022/03/29 13:26:52;;;;;;;20.45;18.35;;;18.70;46.90;;;;;;5104394;27;20538;-60
2022/03/29 13:29:33;;;;;;;20.08;18.05;;;18.70;45.90;;;;;;5082907;27;20544;-61
2022/03/29 13:32:14;;;;;;;19.17;17.45;;;18.70;45.40;;;;;;5123064;27;21165;-61
2022/03/29 13:34:53;;;;;;;19.63;17.80;;;18.50;47.30;;;;;;5121986;27;20698;-61
2022/03/29 13:37:33;;;;;;;22.27;17.27;;;18.60;45.20;;;;;;5104857;27;21023;-63
2022/03/29 13:40:13;;;;;;;20.60;18.15;;;18.60;44.70;;;;;;5088701;27;20555;-62
2022/03/29 13:42:53;;;;;;;19.05;17.17;;;18.60;44.30;;;;;;5148692;27;20663;-61
2022/03/29 13:45:33;;;;;;;19.08;17.17;;;18.40;45.60;;;;;;5082557;28;20842;-61
2022/03/29 13:48:14;;;;;;;18.67;16.73;;;18.50;45.70;;;;;;5124753;27;20695;-61
2022/03/29 13:50:53;;;;;;;22.02;18.30;;;18.90;43.90;;;;;;5103418;27;20905;-61
2022/03/29 13:53:35;;;;;;;18.83;16.98;;;19.10;42.80;;;;;;5121724;27;20695;-61
2022/03/29 13:56:15;;;;;;;21.85;17.08;;;19.20;42.90;;;;;;5115015;27;20538;-61
2022/03/29 13:58:55;;;;;;;17.95;16.17;;;19.10;42.90;;;;;;5080686;27;20793;-61
2022/03/29 14:01:35;;;;;;;18.60;16.80;;;18.90;43.30;;;;;;5122025;27;20885;-61
2022/03/29 14:04:15;;;;;;;20.58;18.40;;;18.70;44.00;;;;;;5095092;27;20592;-61
2022/03/29 14:06:55;;;;;;;22.55;19.98;;;18.70;44.60;;;;;;5080267;28;20674;-61
2022/03/29 14:09:34;;;;;;;20.50;16.90;;;18.50;45.20;;;;;;5121959;27;21026;-61
2022/03/29 14:12:14;;;;;;;21.85;18.98;;;18.40;45.30;;;;;;5145631;27;20611;-61